Terminal Aerodrome Forecast
Issued by NWS Tiyan, Guam

Home | Current Version | Previous Version | Text Only | Print | Product List | Glossary On
Versions: 1 2 3 4 5 6 7 8 9 10 11 12 13 14 15 16 17 18
000
FTPQ31 PGUM 261127
TAFGUM
TAF
PGUM 261127Z 2612/2718 06009KT P6SM VCSH FEW016 SCT040 BKN100
      TEMPO 2612/2615 05016KT 5SM SHRA SCT014 BKN025
     FM270100 05012KT P6SM VCSH FEW020 SCT050=

USA.gov is the U.S. government's official web portal to all federal, state and local government web resources and services.